Time;durP1;ratioP1;P1;durP2;ratioP2;P2;SDS_P1;SDS_P2;PMS_P1;PMS_P2;Temp;Humidity;BMP_temperature;BMP_pressure;BME280_temperature;BME280_humidity;BME280_pressure;Samples;Min_cycle;Max_cycle;Signal;HPM_P1;HPM_P2
2022/09/09 00:02:19;;;;;;;10.15;6.03;;;;;;;14.35;70.40;100387.02;1825608;77;25977;-76
2022/09/09 00:05:03;;;;;;;13.22;6.53;;;;;;;14.26;70.64;100388.30;1822223;77;28119;-78
2022/09/09 00:07:49;;;;;;;11.05;6.62;;;;;;;14.22;70.97;100388.94;1830488;77;25738;-76
2022/09/09 00:10:33;;;;;;;10.50;5.80;;;;;;;14.19;71.32;100385.31;1817417;77;25806;-76
2022/09/09 00:13:41;;;;;;;12.58;5.87;;;;;;;14.17;71.22;100394.14;1775245;79;26406;-77
2022/09/09 00:16:16;;;;;;;11.78;6.10;;;;;;;14.14;71.32;100387.30;1828395;77;25960;-77
2022/09/09 00:19:09;;;;;;;8.63;5.10;;;;;;;14.11;71.42;100388.27;1820680;77;27446;-76
2022/09/09 00:21:38;;;;;;;9.90;5.47;;;;;;;14.11;71.75;100382.37;1819240;77;25773;-76
2022/09/09 00:24:13;;;;;;;11.45;5.33;;;;;;;14.07;72.07;100389.74;1833940;76;25827;-76
2022/09/09 00:26:50;;;;;;;8.50;5.85;;;;;;;14.03;72.01;100387.98;1834870;77;25861;-76
2022/09/09 00:29:47;;;;;;;13.68;6.25;;;;;;;13.98;72.18;100386.47;1827114;77;26042;-76
2022/09/09 00:32:18;;;;;;;15.10;5.90;;;;;;;13.92;72.45;100386.78;1834305;77;28218;-77
2022/09/09 00:34:56;;;;;;;12.68;6.53;;;;;;;13.90;72.61;100396.11;1832687;77;25694;-76
2022/09/09 00:37:25;;;;;;;9.98;6.90;;;;;;;13.85;72.59;100399.47;1823113;77;25739;-76
2022/09/09 00:39:57;;;;;;;9.43;5.97;;;;;;;13.86;72.90;100403.80;1821309;77;25771;-76
2022/09/09 00:42:27;;;;;;;9.35;5.83;;;;;;;13.85;73.31;100399.98;1824061;77;26044;-77
2022/09/09 00:45:15;;;;;;;;;;;;;;;13.83;73.38;100401.55;1818896;77;27633;-77
2022/09/09 00:47:48;;;;;;;15.40;6.65;;;;;;;13.81;73.59;100400.90;1825288;77;25787;-76
2022/09/09 00:50:39;;;;;;;11.95;6.67;;;;;;;13.76;73.95;100399.89;1827211;77;25846;-76
2022/09/09 00:54:02;;;;;;;9.43;6.30;;;;;;;13.72;74.08;100395.47;1830102;77;26452;-77
2022/09/09 00:56:41;;;;;;;14.45;6.30;;;;;;;13.72;74.34;100391.43;1739883;81;26297;-78
2022/09/09 00:59:26;;;;;;;12.43;6.67;;;;;;;13.67;74.70;100384.50;1817468;77;27517;-78
2022/09/09 01:01:55;;;;;;;15.32;6.50;;;;;;;13.63;74.81;100391.86;1822931;77;25894;-79
2022/09/09 01:04:28;;;;;;;14.23;7.87;;;;;;;13.60;75.23;100386.91;1826003;77;25844;-78
2022/09/09 01:07:00;;;;;;;14.25;7.20;;;;;;;13.53;75.35;100379.37;1829646;77;26275;-77
2022/09/09 01:09:53;;;;;;;12.82;7.10;;;;;;;13.49;75.56;100376.80;1783838;79;25840;-77
2022/09/09 01:12:43;;;;;;;14.47;7.22;;;;;;;13.46;75.92;100375.86;1773489;79;27524;-78
2022/09/09 01:15:24;;;;;;;16.10;7.25;;;;;;;13.42;76.32;100376.81;1771595;79;26692;-78
2022/09/09 01:18:10;;;;;;;14.18;7.15;;;;;;;13.40;76.52;100384.78;1783074;79;26387;-78
2022/09/09 01:21:00;;;;;;;13.00;7.60;;;;;;;13.38;76.86;100377.44;1794412;79;25764;-78
2022/09/09 01:23:48;;;;;;;15.20;7.75;;;;;;;13.35;76.96;100386.75;1801849;79;25711;-77
2022/09/09 01:26:34;;;;;;;10.45;6.92;;;;;;;13.39;77.27;100396.56;1820619;77;27462;-78
2022/09/09 01:29:06;;;;;;;15.28;8.63;;;;;;;13.41;77.26;100388.59;1827029;77;26397;-78
2022/09/09 01:31:45;;;;;;;11.93;7.80;;;;;;;13.41;77.32;100389.94;1796398;79;26046;-78
2022/09/09 01:34:15;;;;;;;18.70;8.43;;;;;;;13.40;77.50;100386.95;1813088;77;26128;-78
2022/09/09 01:37:04;;;;;;;14.35;8.35;;;;;;;13.39;77.57;100387.98;1834935;77;25978;-78
2022/09/09 01:39:33;;;;;;;13.35;8.05;;;;;;;13.38;77.73;100386.34;1820098;77;27413;-78
2022/09/09 01:42:02;;;;;;;;;;;;;;;13.42;77.95;100378.67;1772029;79;25904;-78
2022/09/09 01:44:31;;;;;;;14.55;8.43;;;;;;;13.44;78.03;100379.28;1831857;77;25760;-77
2022/09/09 01:46:57;;;;;;;16.30;9.50;;;;;;;13.40;78.07;100381.58;1824370;77;25806;-78
2022/09/09 01:49:24;;;;;;;15.08;8.58;;;;;;;13.40;78.25;100384.78;1825482;77;25871;-78
2022/09/09 01:51:54;;;;;;;15.50;8.00;;;;;;;13.37;78.36;100377.95;1841180;76;27353;-78
2022/09/09 01:54:27;;;;;;;14.40;9.60;;;;;;;13.39;78.33;100382.59;1824943;77;25682;-78
2022/09/09 01:57:15;;;;;;;13.83;9.15;;;;;;;13.40;78.46;100380.23;1806659;77;25863;-78
2022/09/09 01:59:55;;;;;;;13.78;8.43;;;;;;;13.44;78.51;100379.28;1794069;79;26568;-77
2022/09/09 02:02:33;;;;;;;11.45;8.30;;;;;;;13.46;78.46;100378.04;1802678;79;26679;-76
2022/09/09 02:05:41;;;;;;;16.17;9.05;;;;;;;13.46;78.62;100379.38;1825738;77;27440;-77
2022/09/09 02:08:21;;;;;;;17.35;8.63;;;;;;;13.43;78.46;100376.30;1809045;77;25794;-78
2022/09/09 02:11:19;;;;;;;13.75;8.70;;;;;;;13.42;78.76;100374.12;1786179;79;25807;-77
2022/09/09 02:13:52;;;;;;;16.52;8.13;;;;;;;13.42;79.02;100370.08;1790661;79;26042;-77
2022/09/09 02:16:36;;;;;;;14.35;8.60;;;;;;;13.41;79.14;100377.83;1834497;77;25915;-76
2022/09/09 02:19:15;;;;;;;14.53;9.08;;;;;;;13.41;79.33;100381.06;1837163;77;28250;-77
2022/09/09 02:21:45;;;;;;;14.33;9.27;;;;;;;13.39;79.48;100382.59;1827318;77;25874;-77
2022/09/09 02:24:15;;;;;;;15.40;9.18;;;;;;;13.39;79.53;100381.25;1825351;77;26291;-77
2022/09/09 02:26:48;;;;;;;16.32;9.68;;;;;;;13.42;79.65;100382.19;1827510;77;27029;-77
2022/09/09 02:29:21;;;;;;;16.62;9.60;;;;;;;13.45;79.67;100372.33;1810920;77;25939;-77
2022/09/09 02:31:50;;;;;;;16.75;8.88;;;;;;;13.43;79.69;100371.72;1814160;77;28258;-77
2022/09/09 02:34:20;;;;;;;14.60;9.45;;;;;;;13.39;79.79;100375.87;1817112;77;26416;-77
2022/09/09 02:36:49;;;;;;;14.03;8.83;;;;;;;13.36;79.86;100374.97;1826934;77;26057;-77
2022/09/09 02:39:16;;;;;;;18.10;10.10;;;;;;;13.37;79.79;100387.36;1757829;79;25861;-78
2022/09/09 02:41:43;;;;;;;14.87;8.98;;;;;;;13.37;80.17;100379.30;1755739;78;25905;-78
2022/09/09 02:44:16;;;;;;;18.87;10.30;;;;;;;13.40;80.31;100379.39;1775346;78;27406;-78
2022/09/09 02:47:05;;;;;;;15.03;9.15;;;;;;;13.38;80.29;100374.74;1776924;79;25882;-78
2022/09/09 02:49:52;;;;;;;15.30;9.25;;;;;;;13.34;80.38;100377.55;1802723;79;25733;-79
2022/09/09 02:52:43;;;;;;;18.35;9.00;;;;;;;13.34;80.67;100378.89;1829656;77;26639;-79
2022/09/09 02:55:21;;;;;;;15.58;9.88;;;;;;;13.36;80.74;100378.17;1840554;77;25350;-78
2022/09/09 02:57:51;;;;;;;18.77;10.30;;;;;;;13.35;80.87;100380.02;1817860;77;27443;-76
2022/09/09 03:00:27;;;;;;;15.15;9.68;;;;;;;13.34;80.98;100383.77;1836828;77;25671;-77
2022/09/09 03:02:56;;;;;;;14.15;10.10;;;;;;;13.38;81.17;100384.16;1821930;77;25866;-76
2022/09/09 03:05:23;;;;;;;16.07;10.28;;;;;;;13.37;81.26;100387.36;1834360;77;25771;-76
2022/09/09 03:07:50;;;;;;;15.65;9.90;;;;;;;13.33;81.27;100383.95;1836742;77;25929;-77
2022/09/09 03:10:17;;;;;;;18.25;10.28;;;;;;;13.32;81.63;100383.66;1793649;78;27513;-77
2022/09/09 03:12:44;;;;;;;15.58;9.88;;;;;;;13.27;81.66;100388.31;1821705;77;25874;-77
2022/09/09 03:15:11;;;;;;;19.12;10.50;;;;;;;13.30;81.98;100387.88;1837357;77;25866;-78
2022/09/09 03:17:38;;;;;;;17.50;10.60;;;;;;;13.30;82.15;100389.77;1795648;79;25942;-76
2022/09/09 03:20:05;;;;;;;18.95;11.03;;;;;;;13.34;82.07;100388.31;1831774;77;25927;-77
2022/09/09 03:22:34;;;;;;;19.73;9.95;;;;;;;13.33;82.26;100394.71;1815416;77;27520;-77
2022/09/09 03:25:02;;;;;;;16.77;11.00;;;;;;;13.31;82.42;100397.63;1837453;77;25729;-78
2022/09/09 03:27:30;;;;;;;16.20;10.80;;;;;;;13.30;82.57;100395.16;1828744;76;26580;-76
2022/09/09 03:29:57;;;;;;;16.23;10.30;;;;;;;13.32;82.76;100387.70;1825402;76;26546;-77
2022/09/09 03:32:26;;;;;;;18.65;11.03;;;;;;;13.32;82.77;100396.59;1821795;77;25944;-77
2022/09/09 03:34:53;;;;;;;16.35;11.73;;;;;;;13.30;82.76;100391.92;1820090;76;27446;-76
2022/09/09 03:37:20;;;;;;;19.32;11.95;;;;;;;13.34;82.80;100393.69;1830820;76;26002;-77
2022/09/09 03:39:47;;;;;;;18.17;10.82;;;;;;;13.35;82.81;100386.75;1833919;77;25920;-78
2022/09/09 03:42:19;;;;;;;17.90;11.75;;;;;;;13.35;82.94;100389.95;1761000;79;25789;-78
2022/09/09 03:44:49;;;;;;;16.90;9.90;;;;;;;13.34;83.05;100383.77;1779814;79;25969;-77
2022/09/09 03:47:18;;;;;;;17.48;11.70;;;;;;;13.34;83.03;100386.45;1782643;79;27627;-77
2022/09/09 03:49:45;;;;;;;18.98;11.83;;;;;;;13.35;83.29;100390.78;1761953;79;25937;-77
2022/09/09 03:52:12;;;;;;;14.98;11.10;;;;;;;13.34;83.31;100389.14;1831518;77;25704;-77
2022/09/09 03:54:40;;;;;;;16.93;10.58;;;;;;;13.35;83.33;100394.81;1822713;77;25785;-77
2022/09/09 03:57:06;;;;;;;13.38;10.30;;;;;;;13.38;83.43;100390.89;1818738;77;25799;-77
2022/09/09 03:59:33;;;;;;;14.78;10.55;;;;;;;13.41;83.56;100394.52;1828064;77;27412;-77
2022/09/09 04:01:59;;;;;;;15.43;9.85;;;;;;;13.41;83.49;100391.28;1828183;77;26435;-78
2022/09/09 04:04:26;;;;;;;15.90;10.35;;;;;;;13.41;83.53;100392.63;1831618;77;25740;-77
2022/09/09 04:06:53;;;;;;;16.75;11.08;;;;;;;13.42;83.53;100392.12;1827277;77;25773;-78
2022/09/09 04:09:20;;;;;;;12.95;9.28;;;;;;;13.41;83.56;100386.45;1830116;77;26389;-77
2022/09/09 04:11:49;;;;;;;14.18;9.60;;;;;;;13.42;83.62;100388.08;1836960;76;27442;-78
2022/09/09 04:14:16;;;;;;;14.35;10.65;;;;;;;13.41;83.58;100391.28;1831973;76;25709;-78
2022/09/09 04:16:44;;;;;;;17.05;10.25;;;;;;;13.41;83.66;100391.83;1821598;77;25718;-77
2022/09/09 04:19:13;;;;;;;13.50;9.98;;;;;;;13.37;83.75;100394.59;1828210;77;25926;-77
2022/09/09 04:21:41;;;;;;;12.40;10.50;;;;;;;13.34;83.90;100389.14;1824989;77;25761;-77
2022/09/09 04:24:08;;;;;;;16.07;10.80;;;;;;;13.34;84.02;100392.34;1825986;76;27441;-77
2022/09/09 04:26:36;;;;;;;17.82;11.35;;;;;;;13.36;84.10;100397.83;1825458;76;26004;-76
2022/09/09 04:29:04;;;;;;;17.10;10.70;;;;;;;13.37;84.26;100395.44;1835684;77;25735;-77
2022/09/09 04:31:31;;;;;;;14.63;11.20;;;;;;;13.37;84.14;100396.78;1817679;77;25747;-78
2022/09/09 04:33:57;;;;;;;14.68;10.70;;;;;;;13.40;84.23;100396.37;1828771;76;25267;-76
2022/09/09 04:36:24;;;;;;;15.48;9.68;;;;;;;13.41;84.29;100396.66;1825345;76;28654;-76
2022/09/09 04:38:52;;;;;;;16.12;11.45;;;;;;;13.40;84.41;100400.92;1825158;77;25896;-77
2022/09/09 04:41:19;;;;;;;14.78;10.18;;;;;;;13.39;84.34;100401.94;1824093;76;26396;-77
2022/09/09 04:43:47;;;;;;;13.90;9.98;;;;;;;13.41;84.38;100398.01;1826008;76;25762;-77
2022/09/09 04:46:17;;;;;;;12.47;9.53;;;;;;;13.45;84.43;100399.23;1829584;76;25668;-77
2022/09/09 04:48:44;;;;;;;14.23;10.30;;;;;;;13.47;84.44;100400.39;1826637;77;27440;-78
2022/09/09 04:51:13;;;;;;;12.93;8.83;;;;;;;13.51;84.56;100398.94;1830439;76;25842;-78
2022/09/09 04:53:40;;;;;;;11.43;8.98;;;;;;;13.52;84.48;100409.99;1800180;78;25797;-77
2022/09/09 04:56:14;;;;;;;13.90;9.03;;;;;;;13.54;84.47;100403.37;1831541;76;26211;-77
2022/09/09 04:58:43;;;;;;;13.62;9.28;;;;;;;13.52;84.51;100404.09;1827563;76;26437;-77
2022/09/09 05:01:14;;;;;;;13.78;9.58;;;;;;;13.50;84.55;100403.48;1813387;77;27479;-78
2022/09/09 05:03:45;;;;;;;12.70;9.13;;;;;;;13.51;84.64;100407.01;1806482;77;25324;-77
2022/09/09 05:06:17;;;;;;;14.65;10.32;;;;;;;13.49;84.75;100409.92;1828608;77;25745;-77
2022/09/09 05:08:45;;;;;;;13.40;9.93;;;;;;;13.49;84.87;100411.27;1829669;77;26252;-77
2022/09/09 05:11:29;;;;;;;15.90;9.23;;;;;;;13.49;84.98;100408.58;1804540;77;25812;-76
2022/09/09 05:13:57;;;;;;;12.88;9.23;;;;;;;13.50;84.99;100409.38;1826013;77;27455;-77
2022/09/09 05:16:24;;;;;;;14.95;9.20;;;;;;;13.51;85.05;100409.70;1805183;79;25738;-77
2022/09/09 05:18:51;;;;;;;15.70;9.93;;;;;;;13.51;85.21;100409.70;1837366;77;25284;-78
2022/09/09 05:21:21;;;;;;;12.30;9.65;;;;;;;13.50;85.21;100411.55;1830727;77;25762;-77
2022/09/09 05:23:47;;;;;;;18.30;11.00;;;;;;;13.52;85.39;100410.83;1833420;77;26351;-77
2022/09/09 05:26:18;;;;;;;16.70;10.40;;;;;;;13.49;85.36;100409.09;1837280;77;28267;-77
2022/09/09 05:28:46;;;;;;;16.25;10.93;;;;;;;13.48;85.62;100409.59;1835230;77;26445;-78
2022/09/09 05:31:16;;;;;;;15.88;10.63;;;;;;;13.50;85.68;100412.91;1836504;77;25880;-77
2022/09/09 05:33:46;;;;;;;17.30;10.28;;;;;;;13.51;85.73;100411.88;1811687;77;25996;-77
2022/09/09 05:36:17;;;;;;;17.57;10.98;;;;;;;13.50;85.79;100413.41;1827460;77;25751;-78
2022/09/09 05:38:45;;;;;;;15.83;10.20;;;;;;;13.53;85.91;100413.84;1817142;77;27626;-77
2022/09/09 05:41:19;;;;;;;16.23;11.20;;;;;;;13.56;85.93;100417.44;1836449;77;25775;-77
2022/09/09 05:43:44;;;;;;;15.70;11.05;;;;;;;13.59;85.99;100418.89;1805481;79;25891;-76
2022/09/09 05:46:14;;;;;;;14.80;10.68;;;;;;;13.57;86.04;100409.69;1805081;77;25993;-76
2022/09/09 05:48:46;;;;;;;17.40;12.40;;;;;;;13.57;86.09;100412.89;1823226;77;25762;-76
2022/09/09 05:51:17;;;;;;;18.40;11.48;;;;;;;13.58;86.22;100417.25;1819599;77;27685;-77
2022/09/09 05:53:46;;;;;;;17.57;11.60;;;;;;;13.58;86.33;100423.44;1773661;80;25910;-76
2022/09/09 05:56:23;;;;;;;18.62;11.43;;;;;;;13.56;86.36;100414.75;1805738;79;25726;-76
2022/09/09 05:58:51;;;;;;;13.68;10.20;;;;;;;13.58;86.46;100420.74;1795460;79;26522;-78
2022/09/09 06:01:26;;;;;;;16.50;10.18;;;;;;;13.58;86.45;100420.74;1781224;79;25679;-77
2022/09/09 06:03:53;;;;;;;14.85;10.20;;;;;;;13.59;86.43;100422.92;1790317;79;27519;-75
2022/09/09 06:06:27;;;;;;;16.57;10.40;;;;;;;13.56;86.58;100432.23;1791804;79;25788;-76
2022/09/09 06:08:57;;;;;;;17.05;10.35;;;;;;;13.57;86.71;100435.77;1787862;79;25799;-75
2022/09/09 06:11:30;;;;;;;19.77;11.12;;;;;;;13.58;86.93;100434.75;1781201;79;25807;-76
2022/09/09 06:13:59;;;;;;;14.23;10.08;;;;;;;13.58;86.94;100433.40;1808974;79;25861;-77
2022/09/09 06:16:28;;;;;;;17.92;10.60;;;;;;;13.60;87.00;100436.70;1782515;78;28246;-75
2022/09/09 06:18:57;;;;;;;14.20;11.10;;;;;;;13.62;86.95;100439.47;1803330;77;25868;-76
2022/09/09 06:21:32;;;;;;;14.60;12.10;;;;;;;13.64;87.08;100439.28;1837041;77;25837;-77
2022/09/09 06:23:59;;;;;;;17.73;12.30;;;;;;;13.65;87.09;100439.06;1834769;76;26048;-77
2022/09/09 06:26:35;;;;;;;15.93;11.85;;;;;;;13.66;87.16;100441.23;1821134;77;25768;-77
2022/09/09 06:29:03;;;;;;;16.75;12.45;;;;;;;13.66;87.31;100443.42;1820696;76;27497;-77
2022/09/09 06:31:33;;;;;;;19.85;13.20;;;;;;;13.67;87.34;100445.06;1831443;76;25864;-78
2022/09/09 06:34:05;;;;;;;24.00;15.32;;;;;;;13.67;87.41;100438.84;1789953;79;26464;-77
2022/09/09 06:36:34;;;;;;;20.97;14.90;;;;;;;13.65;87.49;100444.95;1821493;77;26500;-77
2022/09/09 06:39:01;;;;;;;20.95;12.53;;;;;;;13.66;87.65;100448.80;1826157;77;25754;-78
2022/09/09 06:41:32;;;;;;;23.42;11.90;;;;;;;13.69;87.75;100450.22;1827090;76;28070;-77
2022/09/09 06:44:00;;;;;;;16.97;12.85;;;;;;;13.74;87.92;100451.27;1829443;76;25971;-77
2022/09/09 06:46:37;;;;;;;15.38;12.50;;;;;;;13.77;87.95;100437.91;1820184;76;25764;-77
2022/09/09 06:49:05;;;;;;;22.55;13.03;;;;;;;13.79;87.97;100438.52;1822932;77;26601;-77
2022/09/09 06:51:42;;;;;;;20.17;13.58;;;;;;;13.83;88.27;100434.36;1832890;77;25778;-77
2022/09/09 06:54:06;;;;;;;14.58;12.10;;;;;;;13.87;88.19;100445.02;1828343;77;27418;-76
2022/09/09 06:56:41;;;;;;;16.97;12.20;;;;;;;13.87;88.15;100439.12;1819983;76;25828;-77
2022/09/09 06:59:10;;;;;;;16.97;11.75;;;;;;;13.90;88.34;100440.53;1839123;77;26190;-80
2022/09/09 07:01:51;;;;;;;15.35;11.35;;;;;;;13.91;88.35;100441.69;1803657;78;26331;-78
2022/09/09 07:04:18;;;;;;;17.40;11.57;;;;;;;13.92;88.45;100436.59;1791866;79;25776;-79
2022/09/09 07:06:46;;;;;;;17.32;12.03;;;;;;;13.92;88.47;100446.56;1833705;77;28350;-78
2022/09/09 07:09:16;;;;;;;18.73;11.95;;;;;;;13.93;88.64;100446.86;1824299;77;25697;-78
2022/09/09 07:11:47;;;;;;;19.15;12.47;;;;;;;13.98;88.88;100452.95;1829388;77;25915;-78
2022/09/09 07:14:15;;;;;;;18.98;12.45;;;;;;;14.00;88.82;100450.87;1835312;77;25931;-78
2022/09/09 07:16:45;;;;;;;19.62;13.22;;;;;;;13.97;88.67;100456.67;1820713;77;25778;-78
2022/09/09 07:19:14;;;;;;;18.45;12.88;;;;;;;13.98;88.83;100461.03;1834359;77;27693;-78
2022/09/09 07:21:43;;;;;;;19.82;14.03;;;;;;;14.02;89.12;100463.61;1831681;77;25931;-78
2022/09/09 07:24:11;;;;;;;18.50;14.15;;;;;;;14.03;89.15;100460.69;1824595;77;25877;-76
2022/09/09 07:26:39;;;;;;;17.85;11.88;;;;;;;14.05;89.10;100464.55;1823594;77;25977;-75
2022/09/09 07:29:08;;;;;;;20.23;12.63;;;;;;;14.06;89.19;100462.97;1824464;77;26494;-78
2022/09/09 07:31:38;;;;;;;19.82;11.90;;;;;;;14.09;89.16;100464.42;1829413;77;27247;-77
2022/09/09 07:34:06;;;;;;;19.70;13.18;;;;;;;14.12;89.26;100466.16;1825793;77;26397;-77
2022/09/09 07:36:38;;;;;;;23.18;13.22;;;;;;;14.16;89.41;100459.81;1829321;77;25756;-77
2022/09/09 07:39:10;;;;;;;18.95;13.08;;;;;;;14.19;89.40;100466.13;1829250;77;26528;-76
2022/09/09 07:41:41;;;;;;;21.57;12.33;;;;;;;14.20;89.17;100471.84;1820932;77;25614;-76
2022/09/09 07:44:15;;;;;;;24.52;13.70;;;;;;;14.19;89.25;100477.75;1826726;77;28586;-77
2022/09/09 07:46:43;;;;;;;22.52;12.03;;;;;;;14.20;89.24;100481.27;1824218;76;25866;-76
2022/09/09 07:49:11;;;;;;;20.57;13.08;;;;;;;14.19;89.34;100482.30;1822901;76;26643;-77
2022/09/09 07:51:42;;;;;;;20.57;13.65;;;;;;;14.24;89.50;100485.99;1819587;76;25853;-77
2022/09/09 07:54:13;;;;;;;22.82;13.13;;;;;;;14.30;89.72;100492.45;1813677;76;26359;-78
2022/09/09 07:56:42;;;;;;;21.50;13.30;;;;;;;14.32;89.66;100497.10;1776800;80;27528;-77
2022/09/09 07:59:11;;;;;;;24.00;13.32;;;;;;;14.34;89.77;100493.16;1783579;79;25807;-77
2022/09/09 08:01:47;;;;;;;24.00;13.18;;;;;;;14.35;89.60;100491.30;1802379;78;26095;-77
2022/09/09 08:04:17;;;;;;;31.60;16.42;;;;;;;14.35;89.54;100497.49;1821590;77;25986;-76
2022/09/09 08:06:56;;;;;;;22.55;14.53;;;;;;;14.38;89.72;100497.59;1835673;77;26143;-76
2022/09/09 08:09:26;;;;;;;25.55;14.00;;;;;;;14.40;89.82;100498.20;1817534;77;27407;-78
2022/09/09 08:11:53;;;;;;;24.55;13.65;;;;;;;14.43;89.87;100506.70;1823981;77;25785;-77
2022/09/09 08:14:19;;;;;;;27.85;14.90;;;;;;;14.48;90.00;100502.83;1830910;77;25833;-78
2022/09/09 08:16:49;;;;;;;25.95;14.07;;;;;;;14.50;89.83;100501.26;1836055;77;26701;-78
2022/09/09 08:19:17;;;;;;;25.62;14.47;;;;;;;14.52;89.81;100498.66;1830275;77;25860;-78
2022/09/09 08:21:45;;;;;;;26.02;14.53;;;;;;;14.52;89.48;100501.36;1830657;77;27488;-77
2022/09/09 08:24:16;;;;;;;23.50;13.62;;;;;;;14.50;89.39;100505.30;1776384;80;25843;-78
2022/09/09 08:26:48;;;;;;;27.17;15.35;;;;;;;14.52;89.62;100507.30;1827770;77;25773;-77
2022/09/09 08:29:16;;;;;;;26.87;14.05;;;;;;;14.56;89.80;100516.59;1821040;77;25783;-77
2022/09/09 08:31:47;;;;;;;26.90;14.70;;;;;;;14.61;89.96;100512.72;1798639;77;26037;-79
2022/09/09 08:34:15;;;;;;;28.30;15.15;;;;;;;14.63;89.96;100519.55;1822947;77;27435;-79
2022/09/09 08:36:44;;;;;;;30.27;14.68;;;;;;;14.65;89.91;100514.77;1825875;77;25686;-78
2022/09/09 08:39:15;;;;;;;30.52;15.20;;;;;;;14.71;90.05;100521.70;1823130;77;25709;-78
2022/09/09 08:42:27;;;;;;;32.05;16.05;;;;;;;14.73;89.98;100527.20;1829361;77;25996;-78
2022/09/09 08:45:20;;;;;;;31.35;17.35;;;;;;;14.76;89.92;100532.66;1831013;77;25879;-78
2022/09/09 08:48:20;;;;;;;35.68;18.20;;;;;;;14.81;89.91;100526.94;1822249;76;27622;-79
2022/09/09 08:50:51;;;;;;;42.62;18.32;;;;;;;14.83;89.89;100523.50;1825729;76;25972;-79
2022/09/09 08:53:24;;;;;;;;;;;;;;;14.84;90.08;100521.09;1829442;76;25883;-79
2022/09/09 08:55:59;;;;;;;34.30;17.45;;;;;;;14.85;90.03;100511.14;1805551;77;26307;-79
2022/09/09 08:58:52;;;;;;;45.35;21.80;;;;;;;14.85;90.09;100520.58;1794579;77;26142;-78
2022/09/09 09:01:52;;;;;;;40.55;21.05;;;;;;;14.89;90.24;100519.94;1825134;76;27913;-76
2022/09/09 09:05:07;;;;;;;47.13;20.65;;;;;;;14.92;90.02;100529.47;1772835;77;25862;-78
2022/09/09 09:07:58;;;;;;;34.45;19.60;;;;;;;14.94;89.97;100528.22;1798155;77;26012;-77
2022/09/09 09:10:42;;;;;;;40.05;20.43;;;;;;;15.01;90.05;100541.12;1792308;77;26578;-77
2022/09/09 09:13:25;;;;;;;32.63;18.10;;;;;;;15.00;90.02;100540.83;1827831;77;26551;-77
2022/09/09 09:16:00;;;;;;;39.55;18.62;;;;;;;15.00;90.00;100544.88;1818219;77;28272;-77
2022/09/09 09:18:27;;;;;;;33.98;19.15;;;;;;;15.06;90.16;100544.00;1828539;77;25859;-77
2022/09/09 09:21:24;;;;;;;39.50;19.90;;;;;;;15.09;89.98;100550.33;1839105;77;25745;-78
2022/09/09 09:23:59;;;;;;;33.55;18.60;;;;;;;15.12;90.14;100554.47;1775696;79;25832;-77
2022/09/09 09:26:32;;;;;;;41.77;20.32;;;;;;;15.12;89.92;100547.17;1820311;77;25753;-78
2022/09/09 09:29:17;;;;;;;36.65;19.98;;;;;;;15.12;89.92;100546.38;1792791;77;27470;-78
2022/09/09 09:31:56;;;;;;;39.18;20.88;;;;;;;15.14;90.05;100542.39;1831243;77;26165;-78
2022/09/09 09:34:24;;;;;;;38.48;19.75;;;;;;;15.19;90.38;100543.09;1829139;77;26437;-78
2022/09/09 09:36:57;;;;;;;42.15;20.70;;;;;;;15.26;90.30;100542.53;1824355;77;25676;-78
2022/09/09 09:39:29;;;;;;;42.80;21.25;;;;;;;15.29;90.03;100547.50;1822452;77;25811;-78
2022/09/09 09:41:59;;;;;;;39.53;19.42;;;;;;;15.32;90.23;100548.39;1836045;77;28440;-77
2022/09/09 09:44:31;;;;;;;40.58;20.15;;;;;;;15.36;90.25;100549.61;1824885;77;25793;-79
2022/09/09 09:47:21;;;;;;;39.00;19.37;;;;;;;15.41;90.33;100545.74;1838050;77;25748;-80
2022/09/09 09:50:20;;;;;;;37.23;19.42;;;;;;;15.47;90.23;100550.80;1807944;79;25833;-79
2022/09/09 09:53:00;;;;;;;46.75;21.97;;;;;;;15.51;90.02;100549.31;1834670;77;25671;-78
2022/09/09 09:55:31;;;;;;;38.53;21.27;;;;;;;15.55;89.80;100547.83;1822890;76;27480;-78
2022/09/09 09:58:08;;;;;;;47.83;22.80;;;;;;;15.58;89.77;100551.45;1832300;77;25238;-78
2022/09/09 10:00:36;;;;;;;40.15;21.85;;;;;;;15.59;89.65;100551.77;1839384;77;25881;-77
2022/09/09 10:03:28;;;;;;;40.03;21.65;;;;;;;15.59;89.46;100553.11;1828544;77;26325;-78
2022/09/09 10:06:00;;;;;;;;;;;;;;;15.56;89.11;100557.08;1829004;77;25258;-77
2022/09/09 10:08:26;;;;;;;40.55;20.20;;;;;;;15.57;89.11;100560.06;1828918;76;27454;-77
2022/09/09 10:11:19;;;;;;;45.65;23.25;;;;;;;15.58;89.47;100557.69;1825769;76;25303;-77
2022/09/09 10:14:21;;;;;;;43.13;22.00;;;;;;;15.64;89.68;100560.02;1821903;77;26414;-77
2022/09/09 10:17:29;;;;;;;41.83;20.77;;;;;;;15.68;89.16;100562.05;1830952;77;25948;-79
2022/09/09 10:20:16;;;;;;;44.63;22.07;;;;;;;15.75;89.42;100561.48;1818286;77;25913;-77
2022/09/09 10:22:51;;;;;;;38.48;21.23;;;;;;;15.80;88.98;100562.17;1837470;77;28385;-78
2022/09/09 10:25:58;;;;;;;39.88;21.90;;;;;;;15.85;89.12;100563.15;1822330;76;25819;-78
2022/09/09 10:28:56;;;;;;;40.92;20.80;;;;;;;15.89;88.72;100573.81;1837762;77;25887;-80
2022/09/09 10:31:44;;;;;;;42.20;21.73;;;;;;;15.95;88.67;100583.72;1837346;77;26669;-79
2022/09/09 10:34:25;;;;;;;43.35;22.25;;;;;;;16.02;89.11;100572.86;1813813;78;25893;-78
2022/09/09 10:36:51;;;;;;;45.03;22.70;;;;;;;16.08;88.78;100582.80;1763915;79;27462;-78
2022/09/09 10:39:40;;;;;;;50.95;23.77;;;;;;;16.09;88.87;100595.25;1807603;77;25834;-78
2022/09/09 10:42:12;;;;;;;46.42;24.60;;;;;;;16.12;88.81;100592.11;1841347;77;25907;-78
2022/09/09 10:45:19;;;;;;;42.00;23.50;;;;;;;16.12;88.67;100583.45;1847754;77;25756;-78
2022/09/09 10:47:59;;;;;;;44.40;23.62;;;;;;;16.13;88.32;100587.83;1836016;77;26142;-77
2022/09/09 10:51:03;;;;;;;44.58;23.25;;;;;;;16.17;88.23;100586.33;1829803;77;27482;-77
2022/09/09 10:54:07;;;;;;;42.43;24.07;;;;;;;16.24;88.78;100599.77;1833558;77;25788;-77
2022/09/09 10:56:35;;;;;;;41.65;23.40;;;;;;;16.29;88.65;100603.16;1834295;77;26262;-77
2022/09/09 10:59:20;;;;;;;47.45;25.45;;;;;;;16.34;88.71;100604.13;1845316;77;25735;-79
2022/09/09 11:02:01;;;;;;;53.83;27.50;;;;;;;16.37;88.31;100604.21;1844986;77;26511;-77
2022/09/09 11:04:35;;;;;;;49.15;25.80;;;;;;;16.38;88.32;100604.53;1804314;78;27564;-78
2022/09/09 11:07:09;;;;;;;50.98;27.40;;;;;;;16.38;87.97;100606.69;1794819;79;25761;-77
2022/09/09 11:09:43;;;;;;;46.55;26.40;;;;;;;16.38;87.90;100603.18;1816642;78;25742;-78
2022/09/09 11:12:15;;;;;;;46.70;25.00;;;;;;;16.41;88.14;100601.36;1804820;78;26283;-77
2022/09/09 11:14:49;;;;;;;45.92;24.72;;;;;;;16.47;88.34;100601.29;1794673;79;26032;-78
2022/09/09 11:17:20;;;;;;;47.03;24.35;;;;;;;16.53;88.49;100608.53;1795559;79;28268;-77
2022/09/09 11:19:47;;;;;;;43.90;23.73;;;;;;;16.54;88.10;100611.55;1781404;79;25928;-77
2022/09/09 11:22:41;;;;;;;46.37;24.12;;;;;;;16.55;87.97;100605.63;1792528;78;26334;-80
2022/09/09 11:25:25;;;;;;;46.63;24.35;;;;;;;16.54;87.74;100609.36;1788250;79;25834;-80
2022/09/09 11:28:22;;;;;;;48.35;23.87;;;;;;;16.54;87.85;100607.49;1836609;76;25812;-79
2022/09/09 11:30:56;;;;;;;40.23;22.82;;;;;;;16.57;87.86;100612.98;1833680;76;27520;-79
2022/09/09 11:33:44;;;;;;;45.48;23.95;;;;;;;16.61;87.93;100612.83;1838811;77;26376;-78
2022/09/09 11:36:42;;;;;;;38.05;20.75;;;;;;;16.63;87.82;100618.83;1840629;77;25755;-78
2022/09/09 11:39:40;;;;;;;41.48;23.02;;;;;;;16.64;87.88;100621.82;1842198;77;25822;-79
2022/09/09 11:42:18;;;;;;;43.63;26.40;;;;;;;16.69;87.92;100624.17;1826361;77;25302;-79
2022/09/09 11:44:45;;;;;;;45.85;24.65;;;;;;;16.74;87.87;100622.14;1833284;77;27527;-79
2022/09/09 11:47:30;;;;;;;47.55;24.50;;;;;;;16.77;87.62;100626.56;1830276;76;25691;-79
2022/09/09 11:50:20;;;;;;;44.90;25.40;;;;;;;16.82;87.61;100622.66;1832060;77;25968;-77